createdAt,value
2022-10-12T00:02:02.992Z,73.60
2022-10-12T00:04:29.808Z,73.60
2022-10-12T00:06:57.056Z,73.70
2022-10-12T00:09:23.769Z,73.80
2022-10-12T00:11:50.498Z,73.70
2022-10-12T00:14:17.375Z,73.80
2022-10-12T00:16:44.078Z,73.90
2022-10-12T00:19:11.692Z,73.90
2022-10-12T00:21:38.801Z,74.00
2022-10-12T00:24:05.941Z,74.00
2022-10-12T00:26:33.501Z,74.10
2022-10-12T00:29:01.321Z,74.10
2022-10-12T00:31:28.411Z,74.20
2022-10-12T00:33:55.153Z,74.20
2022-10-12T00:36:26.681Z,74.30
2022-10-12T00:38:54.142Z,74.30
2022-10-12T00:41:22.499Z,74.40
2022-10-12T00:43:52.843Z,74.50
2022-10-12T00:46:41.112Z,74.60
2022-10-12T00:49:20.461Z,74.70
2022-10-12T00:51:52.381Z,74.60
2022-10-12T00:54:22.056Z,74.60
2022-10-12T00:56:48.706Z,74.70
2022-10-12T00:59:20.951Z,74.70
2022-10-12T01:01:47.680Z,74.70
2022-10-12T01:04:14.333Z,74.70
2022-10-12T01:06:41.470Z,74.60
2022-10-12T01:09:08.152Z,74.70
2022-10-12T01:11:34.883Z,74.60
2022-10-12T01:14:01.590Z,74.80
2022-10-12T01:16:40.390Z,74.80
2022-10-12T01:19:25.370Z,74.80
2022-10-12T01:21:57.234Z,74.80
2022-10-12T01:24:44.751Z,75.60
2022-10-12T01:27:36.075Z,74.90
2022-10-12T01:30:19.200Z,74.90
2022-10-12T01:32:45.860Z,74.90
2022-10-12T01:35:40.869Z,75.00
2022-10-12T01:38:44.186Z,74.90
2022-10-12T01:41:50.903Z,75.00
2022-10-12T01:44:24.594Z,75.00
2022-10-12T01:46:52.222Z,74.90
2022-10-12T01:49:22.539Z,75.00
2022-10-12T01:51:51.864Z,75.10
2022-10-12T01:54:59.733Z,75.10
2022-10-12T01:57:46.780Z,75.40
2022-10-12T02:00:16.865Z,75.30
2022-10-12T02:03:10.362Z,75.20
2022-10-12T02:05:59.903Z,75.10
2022-10-12T02:08:33.138Z,76.00
2022-10-12T02:11:13.531Z,75.30
2022-10-12T02:13:51.439Z,75.40
2022-10-12T02:16:20.182Z,75.50
2022-10-12T02:18:51.832Z,75.50
2022-10-12T02:21:20.702Z,75.60
2022-10-12T02:23:47.723Z,75.60
2022-10-12T02:26:14.549Z,75.60
2022-10-12T02:28:41.312Z,75.60
2022-10-12T02:31:24.820Z,75.60
2022-10-12T02:33:53.917Z,75.60
2022-10-12T02:36:32.455Z,75.60
2022-10-12T02:39:02.929Z,76.50
2022-10-12T02:41:30.709Z,75.70
2022-10-12T02:43:59.620Z,75.90
2022-10-12T02:46:26.383Z,75.90
2022-10-12T02:48:53.797Z,76.00
2022-10-12T02:51:20.511Z,76.00
2022-10-12T02:53:47.266Z,76.00
2022-10-12T02:56:15.064Z,76.80
2022-10-12T02:58:43.017Z,75.90
2022-10-12T03:01:09.889Z,75.80
2022-10-12T03:03:36.618Z,76.60
2022-10-12T03:06:03.456Z,75.90
2022-10-12T03:08:30.206Z,76.00
2022-10-12T03:11:04.535Z,76.90
2022-10-12T03:13:31.273Z,76.20
2022-10-12T03:16:05.046Z,76.20
2022-10-12T03:18:32.195Z,76.20
2022-10-12T03:20:58.845Z,76.20
2022-10-12T03:23:25.529Z,76.20
2022-10-12T03:25:52.408Z,76.20
2022-10-12T03:28:19.268Z,76.20
2022-10-12T03:30:46.140Z,76.30
2022-10-12T03:33:12.892Z,76.30
2022-10-12T03:35:39.549Z,76.30
2022-10-12T03:38:06.262Z,76.40
2022-10-12T03:40:32.984Z,76.40
2022-10-12T03:42:59.980Z,76.40
2022-10-12T03:45:26.698Z,76.50
2022-10-12T03:47:53.459Z,76.60
2022-10-12T03:50:20.285Z,76.50
2022-10-12T03:52:47.125Z,76.40
2022-10-12T03:55:13.996Z,77.40
2022-10-12T03:57:40.897Z,76.70
2022-10-12T04:00:08.315Z,76.60
2022-10-12T04:02:35.067Z,76.70
2022-10-12T04:05:02.065Z,77.50
2022-10-12T04:07:29.003Z,76.80
2022-10-12T04:09:56.041Z,76.80
2022-10-12T04:12:22.731Z,76.80
2022-10-12T04:14:49.403Z,76.80
2022-10-12T04:17:16.534Z,76.90
2022-10-12T04:19:43.480Z,77.90
2022-10-12T04:22:10.360Z,77.00
2022-10-12T04:24:37.192Z,77.10
2022-10-12T04:27:04.014Z,78.00
2022-10-12T04:29:30.736Z,77.20
2022-10-12T04:31:57.443Z,77.20
2022-10-12T04:34:24.098Z,77.20
2022-10-12T04:36:50.878Z,78.00
2022-10-12T04:39:17.615Z,77.10
2022-10-12T04:41:44.311Z,77.20
2022-10-12T04:44:11.007Z,77.30
2022-10-12T04:46:37.767Z,77.30
2022-10-12T04:49:04.557Z,77.40
2022-10-12T04:51:31.229Z,77.40
2022-10-12T04:53:58.044Z,77.50
2022-10-12T04:56:24.803Z,77.50
2022-10-12T04:58:51.498Z,78.20
2022-10-12T05:01:18.361Z,77.40
2022-10-12T05:03:45.097Z,77.50
2022-10-12T05:06:11.880Z,77.50
2022-10-12T05:08:38.556Z,77.50
2022-10-12T05:11:06.166Z,77.40
2022-10-12T05:13:32.950Z,77.60
2022-10-12T05:15:59.651Z,77.60
2022-10-12T05:18:26.378Z,77.70
2022-10-12T05:20:56.794Z,77.60
2022-10-12T05:23:23.834Z,77.60
2022-10-12T05:25:50.515Z,77.70
2022-10-12T05:28:17.280Z,77.60
2022-10-12T05:30:44.017Z,77.60
2022-10-12T05:33:10.685Z,77.50
2022-10-12T05:35:37.423Z,77.50
2022-10-12T05:38:04.163Z,77.50
2022-10-12T05:40:30.896Z,77.60
2022-10-12T05:42:57.574Z,77.60
2022-10-12T05:45:24.355Z,77.60
2022-10-12T05:47:51.508Z,77.70
2022-10-12T05:50:18.195Z,77.70
2022-10-12T05:52:45.143Z,77.80
2022-10-12T05:55:11.889Z,77.80
2022-10-12T05:57:38.696Z,77.90
2022-10-12T06:00:06.398Z,77.90
2022-10-12T06:02:33.086Z,77.90
2022-10-12T06:04:59.912Z,77.80
2022-10-12T06:07:27.068Z,77.80
2022-10-12T06:09:53.989Z,77.60
2022-10-12T06:12:20.969Z,77.60
2022-10-12T06:14:47.805Z,77.60
2022-10-12T06:17:14.505Z,77.60
2022-10-12T06:19:41.308Z,77.70
2022-10-12T06:22:08.089Z,77.80
2022-10-12T06:24:34.825Z,78.00
2022-10-12T06:27:01.518Z,78.00
2022-10-12T06:29:28.188Z,78.10
2022-10-12T06:31:54.928Z,78.00
2022-10-12T06:34:21.574Z,78.00
2022-10-12T06:36:49.020Z,77.90
2022-10-12T06:39:15.783Z,78.00
2022-10-12T06:41:42.599Z,78.00
2022-10-12T06:44:10.483Z,77.90
2022-10-12T06:46:37.208Z,78.00
2022-10-12T06:49:03.981Z,78.10
2022-10-12T06:51:30.683Z,78.20
2022-10-12T06:53:57.455Z,78.00
2022-10-12T06:56:24.352Z,78.10
2022-10-12T06:58:55.689Z,78.10
2022-10-12T07:01:22.529Z,78.00
2022-10-12T07:03:49.407Z,78.20
2022-10-12T07:06:16.221Z,78.20
2022-10-12T07:08:42.989Z,78.50
2022-10-12T07:11:11.048Z,78.60
2022-10-12T07:13:37.810Z,78.60
2022-10-12T07:16:04.692Z,78.60
2022-10-12T07:18:31.505Z,78.80
2022-10-12T07:20:59.823Z,79.60
2022-10-12T07:23:27.396Z,78.70
2022-10-12T07:25:54.256Z,78.80
2022-10-12T07:28:21.679Z,78.80
2022-10-12T07:30:48.640Z,78.90
2022-10-12T07:33:15.718Z,79.70
2022-10-12T07:36:03.227Z,78.80
2022-10-12T07:38:29.400Z,78.90
2022-10-12T07:40:59.373Z,79.10
2022-10-12T07:43:26.220Z,79.10
2022-10-12T07:45:53.112Z,79.10
2022-10-12T07:48:20.356Z,79.30
2022-10-12T07:50:47.377Z,79.30
2022-10-12T07:53:14.232Z,79.40
2022-10-12T07:55:40.928Z,79.30
2022-10-12T07:58:07.688Z,79.30
2022-10-12T08:00:34.504Z,79.40
2022-10-12T08:03:01.209Z,79.30
2022-10-12T08:05:27.959Z,79.40
2022-10-12T08:07:54.866Z,79.20
2022-10-12T08:10:21.939Z,79.50
2022-10-12T08:12:52.005Z,79.20
2022-10-12T08:15:19.204Z,79.20
2022-10-12T08:17:45.948Z,79.50
2022-10-12T08:20:12.660Z,79.30
2022-10-12T08:22:39.321Z,79.40
2022-10-12T08:25:06.597Z,79.40
2022-10-12T08:27:33.344Z,79.50
2022-10-12T08:30:00.098Z,79.50
2022-10-12T08:32:27.252Z,79.60
2022-10-12T08:34:54.014Z,79.40
2022-10-12T08:37:20.743Z,79.40
2022-10-12T08:39:47.575Z,79.60
2022-10-12T08:42:43.792Z,79.60
2022-10-12T08:45:22.385Z,79.70
2022-10-12T08:47:54.348Z,79.80
2022-10-12T08:50:32.144Z,79.70
2022-10-12T08:53:02.377Z,79.70
2022-10-12T08:55:42.157Z,79.70
2022-10-12T08:58:17.338Z,79.80
2022-10-12T09:00:45.541Z,79.60
2022-10-12T09:03:47.114Z,79.70
2022-10-12T09:06:17.720Z,80.00
2022-10-12T09:08:50.550Z,80.10
2022-10-12T09:11:24.464Z,80.20
2022-10-12T09:14:03.469Z,80.30
2022-10-12T09:16:31.354Z,81.10
2022-10-12T09:19:18.308Z,80.60
2022-10-12T09:21:46.246Z,80.70
2022-10-12T09:24:21.181Z,80.70
2022-10-12T09:26:50.549Z,80.90
2022-10-12T09:29:27.431Z,80.90
2022-10-12T09:32:03.012Z,81.00
2022-10-12T09:34:29.860Z,81.20
2022-10-12T09:36:56.586Z,81.00
2022-10-12T09:39:30.084Z,80.90
2022-10-12T09:41:57.142Z,80.80
2022-10-12T09:44:31.218Z,80.50
2022-10-12T09:46:59.965Z,80.40
2022-10-12T09:49:43.061Z,80.30
2022-10-12T09:52:10.320Z,80.50
2022-10-12T09:57:30.892Z,81.30
2022-10-12T09:59:57.602Z,80.40
2022-10-12T10:02:25.725Z,80.30
2022-10-12T10:04:52.750Z,80.30
2022-10-12T10:07:33.449Z,80.00
2022-10-12T10:10:03.218Z,80.00
2022-10-12T10:12:29.917Z,79.90
2022-10-12T10:14:57.441Z,79.90
2022-10-12T10:17:32.677Z,79.80
2022-10-12T10:20:00.923Z,79.80
2022-10-12T10:22:28.159Z,79.80
2022-10-12T10:25:00.126Z,79.70
2022-10-12T10:27:38.504Z,79.60
2022-10-12T10:30:28.512Z,79.80
2022-10-12T10:33:13.745Z,80.00
2022-10-12T10:35:40.472Z,80.50
2022-10-12T10:38:09.224Z,79.60
2022-10-12T10:40:35.992Z,79.50
2022-10-12T10:43:04.388Z,79.40
2022-10-12T10:45:33.761Z,79.30
2022-10-12T10:48:07.286Z,79.20
2022-10-12T10:50:39.084Z,78.90
2022-10-12T10:53:07.798Z,78.70
2022-10-12T10:56:11.545Z,78.60
2022-10-12T10:58:44.164Z,78.50
2022-10-12T11:01:28.744Z,78.50
2022-10-12T11:03:56.791Z,78.60
2022-10-12T11:06:36.097Z,78.60
2022-10-12T11:09:11.054Z,78.50
2022-10-12T11:11:37.982Z,78.60
2022-10-12T11:14:14.880Z,78.30
2022-10-12T11:16:53.372Z,78.90
2022-10-12T11:19:57.830Z,77.20
2022-10-12T11:22:47.293Z,77.70
2022-10-12T11:25:29.471Z,77.80
2022-10-12T11:27:56.186Z,77.30
2022-10-12T11:30:24.969Z,77.30
2022-10-12T11:33:03.331Z,77.20
2022-10-12T11:35:34.438Z,77.20
2022-10-12T11:38:11.579Z,77.20
2022-10-12T11:41:19.069Z,76.50
2022-10-12T11:44:18.365Z,76.70
2022-10-12T11:46:59.496Z,76.80
2022-10-12T11:49:29.049Z,76.90
2022-10-12T11:51:57.727Z,76.90
2022-10-12T11:54:29.118Z,76.90
2022-10-12T11:56:58.178Z,77.00
2022-10-12T11:59:33.689Z,76.70
2022-10-12T12:02:11.179Z,76.80
2022-10-12T12:04:42.791Z,77.60
2022-10-12T12:07:43.182Z,77.50
2022-10-12T12:10:30.549Z,76.70
2022-10-12T12:13:23.036Z,76.70
2022-10-12T12:15:49.898Z,76.40
2022-10-12T12:18:18.553Z,76.70
2022-10-12T12:20:45.367Z,76.80
2022-10-12T12:23:25.798Z,76.80
2022-10-12T12:26:15.614Z,76.40
2022-10-12T12:28:49.947Z,76.00
2022-10-12T12:31:25.060Z,76.00
2022-10-12T12:34:05.385Z,76.10
2022-10-12T12:36:37.801Z,76.00
2022-10-12T12:39:05.588Z,76.10
2022-10-12T12:41:57.651Z,75.90
2022-10-12T12:44:46.174Z,76.00
2022-10-12T12:50:07.574Z,76.00
2022-10-12T12:52:35.425Z,75.60
2022-10-12T12:55:14.068Z,75.60
2022-10-12T12:57:59.350Z,75.60
2022-10-12T13:00:29.106Z,75.60
2022-10-12T13:03:04.800Z,75.30
2022-10-12T13:05:40.535Z,75.30
2022-10-12T13:08:19.109Z,74.90
2022-10-12T13:10:58.177Z,74.80
2022-10-12T13:13:45.535Z,74.50
2022-10-12T13:17:30.274Z,74.50
2022-10-12T13:19:24.012Z,74.10
2022-10-12T13:21:52.172Z,73.80
2022-10-12T13:24:29.915Z,74.60
2022-10-12T13:27:06.052Z,73.50
2022-10-12T13:29:41.408Z,73.20
2022-10-12T13:32:16.560Z,72.70
2022-10-12T13:34:44.006Z,72.30
2022-10-12T13:37:14.830Z,72.70
2022-10-12T13:39:44.747Z,72.60
2022-10-12T13:42:16.964Z,72.60
2022-10-12T13:44:44.516Z,72.20
2022-10-12T13:47:28.391Z,72.50
2022-10-12T13:49:55.864Z,71.80
2022-10-12T13:52:33.122Z,71.60
2022-10-12T13:55:00.373Z,71.60
2022-10-12T13:57:35.165Z,71.30
2022-10-12T14:00:10.183Z,70.90
2022-10-12T14:02:37.010Z,70.80
2022-10-12T14:05:05.385Z,70.70
2022-10-12T14:07:34.506Z,70.70
2022-10-12T14:10:31.526Z,70.40
2022-10-12T14:12:58.279Z,70.60
2022-10-12T14:15:26.381Z,70.10
2022-10-12T14:17:54.812Z,70.10
2022-10-12T14:20:39.103Z,70.30
2022-10-12T14:23:24.095Z,70.20
2022-10-12T14:25:51.885Z,69.80
2022-10-12T14:28:32.795Z,69.70
2022-10-12T14:30:59.789Z,69.80
2022-10-12T14:33:26.628Z,69.70
2022-10-12T14:36:01.044Z,69.70
2022-10-12T14:38:39.749Z,69.70
2022-10-12T14:41:28.431Z,69.60
2022-10-12T14:44:16.372Z,69.60
2022-10-12T14:47:13.956Z,69.60
2022-10-12T14:49:45.281Z,69.60
2022-10-12T14:52:23.648Z,69.70
2022-10-12T14:54:53.730Z,69.50
2022-10-12T14:57:20.618Z,69.60
2022-10-12T14:59:47.419Z,69.50
2022-10-12T15:02:22.503Z,69.30
2022-10-12T15:04:49.443Z,69.40
2022-10-12T15:07:22.899Z,69.30
2022-10-12T15:09:49.625Z,69.40
2022-10-12T15:12:17.879Z,70.00
2022-10-12T15:14:44.834Z,69.00
2022-10-12T15:17:14.730Z,68.10
2022-10-12T15:19:41.997Z,67.40
2022-10-12T15:22:10.816Z,68.30
2022-10-12T15:24:37.550Z,68.20
2022-10-12T15:27:04.310Z,68.10
2022-10-12T15:29:31.058Z,68.20
2022-10-12T15:31:59.500Z,68.90
2022-10-12T15:34:26.557Z,68.20
2022-10-12T15:36:53.480Z,68.20
2022-10-12T15:39:20.347Z,68.20
2022-10-12T15:41:47.041Z,68.20
2022-10-12T15:44:14.504Z,68.00
2022-10-12T15:46:41.445Z,68.00
2022-10-12T15:49:08.253Z,68.10
2022-10-12T15:51:40.895Z,68.20
2022-10-12T15:54:07.692Z,67.90
2022-10-12T15:56:34.430Z,67.90
2022-10-12T15:59:01.139Z,67.70
2022-10-12T16:01:27.991Z,67.80
2022-10-12T16:03:54.812Z,67.40
2022-10-12T16:06:21.647Z,67.70
2022-10-12T16:08:48.416Z,67.60
2022-10-12T16:11:15.907Z,67.70
2022-10-12T16:13:48.935Z,67.60
2022-10-12T16:16:19.287Z,67.70
2022-10-12T16:18:45.986Z,67.80
2022-10-12T16:21:12.687Z,67.80
2022-10-12T16:23:39.828Z,67.70
2022-10-12T16:26:08.923Z,68.00
2022-10-12T16:28:35.715Z,67.70
2022-10-12T16:31:02.763Z,68.60
2022-10-12T16:33:29.485Z,67.80
2022-10-12T16:35:56.184Z,67.90
2022-10-12T16:38:22.884Z,67.80
2022-10-12T16:40:49.944Z,68.00
2022-10-12T16:43:16.850Z,68.00
2022-10-12T16:45:43.576Z,68.10
2022-10-12T16:48:10.567Z,68.10
2022-10-12T16:50:40.426Z,69.00
2022-10-12T16:53:07.638Z,68.20
2022-10-12T16:55:37.250Z,68.20
2022-10-12T16:58:03.944Z,68.20
2022-10-12T17:00:30.712Z,68.20
2022-10-12T17:02:57.618Z,68.20
2022-10-12T17:05:24.425Z,68.20
2022-10-12T17:07:51.152Z,68.20
2022-10-12T17:10:18.089Z,68.30
2022-10-12T17:12:44.853Z,68.20
2022-10-12T17:15:11.572Z,68.30
2022-10-12T17:17:38.263Z,68.30
2022-10-12T17:20:05.291Z,68.30
2022-10-12T17:22:32.157Z,68.20
2022-10-12T17:24:59.008Z,68.30
2022-10-12T17:27:29.952Z,68.20
2022-10-12T17:29:59.588Z,68.20
2022-10-12T17:32:26.692Z,68.20
2022-10-12T17:34:53.424Z,68.30
2022-10-12T17:37:21.892Z,68.30
2022-10-12T17:39:50.231Z,68.40
2022-10-12T17:42:17.826Z,68.30
2022-10-12T17:44:44.888Z,68.40
2022-10-12T17:47:11.594Z,68.40
2022-10-12T17:49:38.292Z,68.50
2022-10-12T17:52:05.302Z,68.50
2022-10-12T17:54:32.836Z,68.50
2022-10-12T17:56:59.572Z,68.60
2022-10-12T17:59:26.368Z,68.60
2022-10-12T18:01:53.404Z,68.60
2022-10-12T18:04:20.310Z,68.70
2022-10-12T18:06:47.005Z,68.70
2022-10-12T18:09:13.843Z,68.70
2022-10-12T18:11:40.657Z,68.70
2022-10-12T18:14:10.524Z,68.80
2022-10-12T18:16:37.410Z,68.70
2022-10-12T18:19:05.233Z,68.70
2022-10-12T18:21:32.503Z,68.70
2022-10-12T18:24:02.908Z,68.70
2022-10-12T18:26:30.587Z,68.60
2022-10-12T18:28:59.573Z,69.40
2022-10-12T18:31:26.640Z,68.80
2022-10-12T18:33:53.741Z,68.90
2022-10-12T18:36:20.516Z,68.90
2022-10-12T18:38:47.358Z,68.80
2022-10-12T18:41:19.187Z,68.70
2022-10-12T18:43:45.902Z,68.60
2022-10-12T18:46:14.210Z,68.60
2022-10-12T18:48:40.996Z,68.70
2022-10-12T18:51:15.439Z,68.60
2022-10-12T18:53:42.167Z,68.80
2022-10-12T18:56:09.919Z,68.70
2022-10-12T18:58:38.211Z,68.40
2022-10-12T19:01:15.758Z,68.30
2022-10-12T19:03:42.538Z,68.20
2022-10-12T19:06:13.807Z,68.20
2022-10-12T19:08:40.805Z,68.30
2022-10-12T19:11:08.231Z,68.40
2022-10-12T19:13:35.956Z,69.20
2022-10-12T19:16:13.111Z,68.20
2022-10-12T19:18:40.053Z,68.40
2022-10-12T19:21:08.539Z,68.50
2022-10-12T19:23:35.446Z,68.20
2022-10-12T19:26:13.655Z,67.90
2022-10-12T19:28:40.384Z,68.00
2022-10-12T19:31:13.195Z,68.10
2022-10-12T19:33:39.960Z,68.00
2022-10-12T19:36:07.665Z,67.80
2022-10-12T19:38:34.409Z,67.80
2022-10-12T19:41:01.157Z,68.50
2022-10-12T19:43:27.923Z,67.80
2022-10-12T19:45:54.692Z,67.80
2022-10-12T19:48:21.529Z,67.80
2022-10-12T19:50:48.288Z,67.80
2022-10-12T19:53:15.080Z,68.00
2022-10-12T19:55:41.851Z,68.10
2022-10-12T19:58:08.895Z,67.90
2022-10-12T20:00:35.974Z,67.70
2022-10-12T20:03:04.997Z,67.70
2022-10-12T20:05:31.740Z,67.40
2022-10-12T20:07:58.603Z,67.40
2022-10-12T20:10:25.373Z,67.10
2022-10-12T20:12:52.085Z,67.40
2022-10-12T20:15:18.816Z,67.30
2022-10-12T20:17:45.541Z,67.50
2022-10-12T20:20:12.510Z,68.40
2022-10-12T20:22:39.260Z,67.60
2022-10-12T20:25:09.618Z,67.70
2022-10-12T20:27:36.987Z,67.70
2022-10-12T20:30:04.870Z,67.60
2022-10-12T20:32:31.633Z,67.50
2022-10-12T20:34:58.356Z,67.40
2022-10-12T20:37:25.093Z,67.30
2022-10-12T20:39:52.237Z,66.70
2022-10-12T20:42:21.937Z,66.70
2022-10-12T20:44:49.036Z,66.70
2022-10-12T20:47:15.964Z,66.70
2022-10-12T20:49:42.784Z,66.70
2022-10-12T20:52:09.666Z,67.60
2022-10-12T20:54:36.791Z,66.70
2022-10-12T20:57:06.626Z,66.70
2022-10-12T20:59:36.800Z,67.00
2022-10-12T21:02:03.540Z,67.00
2022-10-12T21:04:33.573Z,67.00
2022-10-12T21:07:02.953Z,66.60
2022-10-12T21:09:29.633Z,66.40
2022-10-12T21:11:56.536Z,66.30
2022-10-12T21:14:26.291Z,66.50
2022-10-12T21:16:53.239Z,66.60
2022-10-12T21:19:19.932Z,66.60
2022-10-12T21:21:46.763Z,66.50
2022-10-12T21:24:13.596Z,66.50
2022-10-12T21:26:40.350Z,66.40
2022-10-12T21:29:07.076Z,66.50
2022-10-12T21:31:33.911Z,66.50
2022-10-12T21:34:01.657Z,66.50
2022-10-12T21:36:28.629Z,66.60
2022-10-12T21:38:55.490Z,66.50
2022-10-12T21:41:23.746Z,67.60
2022-10-12T21:43:50.655Z,66.70
2022-10-12T21:46:25.414Z,66.60
2022-10-12T21:48:52.221Z,66.60
2022-10-12T21:51:19.569Z,66.80
2022-10-12T21:53:46.393Z,66.60
2022-10-12T21:56:18.154Z,66.20
2022-10-12T21:58:45.136Z,66.20
2022-10-12T22:01:14.340Z,66.10
2022-10-12T22:03:41.564Z,66.00
2022-10-12T22:06:12.505Z,66.10
2022-10-12T22:08:39.264Z,66.20
2022-10-12T22:11:07.249Z,66.30
2022-10-12T22:13:34.583Z,66.40
2022-10-12T22:16:09.332Z,66.10
2022-10-12T22:18:36.100Z,66.10
2022-10-12T22:21:10.579Z,66.10
2022-10-12T22:23:37.262Z,66.20
2022-10-12T22:26:09.192Z,66.20
2022-10-12T22:28:36.130Z,66.10
2022-10-12T22:31:07.289Z,66.20
2022-10-12T22:33:34.463Z,66.30
2022-10-12T22:36:01.378Z,66.40
2022-10-12T22:38:28.406Z,66.40
2022-10-12T22:40:59.707Z,66.40
2022-10-12T22:43:27.027Z,66.50
2022-10-12T22:45:54.136Z,66.50
2022-10-12T22:48:21.189Z,66.80
2022-10-12T22:50:48.120Z,66.70
2022-10-12T22:53:15.103Z,66.60
2022-10-12T22:55:42.164Z,66.80
2022-10-12T22:58:08.896Z,66.80
2022-10-12T23:00:35.603Z,66.80
2022-10-12T23:03:02.732Z,66.90
2022-10-12T23:05:29.500Z,67.10
2022-10-12T23:07:56.168Z,67.10
2022-10-12T23:10:23.142Z,67.00
2022-10-12T23:12:49.840Z,66.90
2022-10-12T23:15:16.723Z,66.70
2022-10-12T23:17:43.405Z,66.80
2022-10-12T23:20:10.535Z,67.70
2022-10-12T23:22:37.324Z,67.00
2022-10-12T23:25:04.233Z,68.30
2022-10-12T23:27:30.912Z,68.30
2022-10-12T23:29:57.611Z,68.40
2022-10-12T23:32:24.471Z,68.40
2022-10-12T23:34:51.192Z,68.60
2022-10-12T23:37:18.065Z,68.50
2022-10-12T23:39:44.760Z,68.70
2022-10-12T23:42:11.483Z,68.90
2022-10-12T23:44:38.174Z,69.00
2022-10-12T23:47:04.901Z,69.20
2022-10-12T23:49:31.594Z,69.30
2022-10-12T23:51:58.304Z,69.40
2022-10-12T23:54:25.095Z,69.30
2022-10-12T23:56:51.816Z,69.40
2022-10-12T23:59:18.617Z,69.60
